createdAt,value
2019-05-01T02:02:03.355Z,37.23
2019-05-01T02:08:24.799Z,37.73
2019-05-01T02:13:51.277Z,36.10
2019-05-01T02:23:07.353Z,37.07
2019-05-01T02:52:40.580Z,33.53
2019-05-01T02:55:33.133Z,33.80
2019-05-01T03:25:11.785Z,34.77
2019-05-01T03:30:50.715Z,35.03
2019-05-01T03:33:21.079Z,34.87
2019-05-01T03:45:51.683Z,32.13
2019-05-01T04:12:23.426Z,36.10
2019-05-01T04:14:54.680Z,35.80
2019-05-01T04:17:28.028Z,34.20
2019-05-01T04:19:59.061Z,34.60
2019-05-01T04:22:27.926Z,35.47
2019-05-01T04:24:56.705Z,35.33
2019-05-01T04:27:27.183Z,36.40
2019-05-01T04:30:01.091Z,34.60
2019-05-01T04:32:31.540Z,34.57
2019-05-01T04:35:18.496Z,34.17
2019-05-01T04:37:47.884Z,34.50
2019-05-01T04:40:18.766Z,37.77
2019-05-01T04:42:47.292Z,36.80
2019-05-01T04:45:16.670Z,40.00
2019-05-01T04:47:45.542Z,37.77
2019-05-01T04:50:14.348Z,36.17
2019-05-01T04:52:43.682Z,38.53
2019-05-01T04:55:12.462Z,39.30
2019-05-01T04:57:41.798Z,39.90
2019-05-01T05:00:11.707Z,38.63
2019-05-01T05:02:45.874Z,38.73
2019-05-01T05:05:14.852Z,37.50
2019-05-01T05:07:43.713Z,41.10
2019-05-01T05:10:12.565Z,41.27
2019-05-01T05:12:52.973Z,39.27
2019-05-01T05:15:39.022Z,41.07
2019-05-01T05:18:07.702Z,42.03
2019-05-01T05:20:36.519Z,42.07
2019-05-01T05:23:05.229Z,42.83
2019-05-01T05:25:34.440Z,40.50
2019-05-01T05:28:03.712Z,41.33
2019-05-01T05:30:34.072Z,41.70
2019-05-01T05:33:17.491Z,42.80
2019-05-01T05:35:37.887Z,42.00
2019-05-01T05:38:27.862Z,43.30
2019-05-01T05:41:00.382Z,43.70
2019-05-01T05:43:30.020Z,47.47
2019-05-01T05:46:03.548Z,44.27
2019-05-01T05:51:26.833Z,44.43
2019-05-01T05:54:16.474Z,47.37
2019-05-01T05:56:51.268Z,46.57
2019-05-01T05:59:27.090Z,46.20
2019-05-01T06:02:05.927Z,45.90
2019-05-01T06:04:44.143Z,48.13
2019-05-01T06:07:17.021Z,49.87
2019-05-01T06:09:49.647Z,50.30
2019-05-01T06:12:24.784Z,50.97
2019-05-01T06:14:57.104Z,49.30
2019-05-01T06:17:29.862Z,48.07
2019-05-01T06:20:00.217Z,51.20
2019-05-01T06:22:31.608Z,50.23
2019-05-01T06:25:02.747Z,51.40
2019-05-01T06:27:32.442Z,50.20
2019-05-01T06:30:02.157Z,50.77
2019-05-01T06:32:33.543Z,48.57
2019-05-01T06:35:03.075Z,54.00
2019-05-01T06:38:01.999Z,53.40
2019-05-01T06:40:44.293Z,51.70
2019-05-01T06:43:25.380Z,55.10
2019-05-01T06:45:59.960Z,54.90
2019-05-01T06:48:33.234Z,49.63
2019-05-01T06:51:19.222Z,54.33
2019-05-01T06:53:49.595Z,57.57
2019-05-01T06:56:18.263Z,59.07
2019-05-01T06:58:51.036Z,57.90
2019-05-01T07:01:19.186Z,56.57
2019-05-01T07:04:03.632Z,57.67
2019-05-01T07:06:25.908Z,57.70
2019-05-01T07:08:52.371Z,59.67
2019-05-01T07:11:20.989Z,57.53
2019-05-01T07:13:55.493Z,61.77
2019-05-01T07:16:23.343Z,65.53
2019-05-01T07:18:58.088Z,61.20
2019-05-01T07:21:27.760Z,61.87
2019-05-01T07:23:55.126Z,58.10
2019-05-01T07:26:24.053Z,57.13
2019-05-01T07:29:09.966Z,59.03
2019-05-01T07:31:41.250Z,55.30
2019-05-01T07:34:16.604Z,59.90
2019-05-01T07:36:41.471Z,57.10
2019-05-01T07:39:14.675Z,57.57
2019-05-01T07:41:40.779Z,55.87
2019-05-01T07:44:16.969Z,58.90
2019-05-01T07:46:49.040Z,55.40
2019-05-01T07:49:19.397Z,55.43
2019-05-01T07:51:52.254Z,51.40
2019-05-01T07:54:23.156Z,52.70
2019-05-01T07:56:53.209Z,50.07
2019-05-01T07:59:22.783Z,52.93
2019-05-01T08:02:00.827Z,53.53
2019-05-01T08:05:04.905Z,51.50
2019-05-01T08:07:22.952Z,51.73
2019-05-01T08:09:56.356Z,54.00
2019-05-01T08:12:25.905Z,49.40
2019-05-01T08:14:54.999Z,51.27
2019-05-01T08:17:30.578Z,50.43
2019-05-01T08:20:00.227Z,46.90
2019-05-01T08:22:39.079Z,51.30
2019-05-01T08:25:08.538Z,53.50
2019-05-01T08:27:41.468Z,49.27
2019-05-01T08:30:17.366Z,49.90
2019-05-01T08:32:47.118Z,48.53
2019-05-01T08:35:17.444Z,47.07
2019-05-01T08:37:46.238Z,48.00
2019-05-01T08:40:15.983Z,48.50
2019-05-01T08:42:45.466Z,48.60
2019-05-01T08:45:35.738Z,46.90
2019-05-01T08:48:09.942Z,48.63
2019-05-01T08:50:38.672Z,49.20
2019-05-01T08:53:07.252Z,49.37
2019-05-01T08:55:39.699Z,50.37
2019-05-01T08:58:08.866Z,47.97
2019-05-01T09:00:40.907Z,48.67
2019-05-01T09:03:08.546Z,49.20
2019-05-01T09:05:52.286Z,49.77
2019-05-01T09:08:26.883Z,43.97
2019-05-01T09:11:16.449Z,46.53
2019-05-01T09:14:06.906Z,47.73
2019-05-01T09:16:45.736Z,46.10
2019-05-01T09:19:17.610Z,48.53
2019-05-01T09:21:49.187Z,49.85
2019-05-01T09:24:17.960Z,47.30
2019-05-01T09:26:54.201Z,48.30
2019-05-01T09:29:24.380Z,49.07
2019-05-01T09:31:53.490Z,48.20
2019-05-01T09:34:24.942Z,44.43
2019-05-01T09:36:53.796Z,45.23
2019-05-01T09:39:22.668Z,45.00
2019-05-01T09:41:51.218Z,45.97
2019-05-01T09:44:21.743Z,46.30
2019-05-01T09:47:09.323Z,43.87
2019-05-01T09:49:37.752Z,44.00
2019-05-01T09:52:23.388Z,43.10
2019-05-01T09:54:51.740Z,43.60
2019-05-01T09:57:20.182Z,43.83
2019-05-01T09:59:48.779Z,41.60
2019-05-01T10:02:17.342Z,44.00
2019-05-01T10:04:45.861Z,46.27
2019-05-01T10:07:14.307Z,45.53
2019-05-01T10:09:47.082Z,45.17
2019-05-01T10:12:13.166Z,45.90
2019-05-01T10:14:41.834Z,46.30
2019-05-01T10:17:11.107Z,49.10
2019-05-01T10:19:40.446Z,45.87
2019-05-01T10:22:09.018Z,42.07
2019-05-01T10:24:39.298Z,49.30
2019-05-01T10:27:13.752Z,46.47
2019-05-01T10:29:46.972Z,47.87
2019-05-01T10:32:23.223Z,47.30
2019-05-01T10:34:56.356Z,48.47
2019-05-01T10:37:23.759Z,47.00
2019-05-01T10:39:54.113Z,45.23
2019-05-01T10:42:22.616Z,48.87
2019-05-01T10:44:51.061Z,46.87
2019-05-01T10:47:19.524Z,47.73
2019-05-01T10:49:47.983Z,46.07
2019-05-01T10:52:16.416Z,47.10
2019-05-01T10:54:46.506Z,45.50
2019-05-01T10:57:15.325Z,49.67
2019-05-01T10:59:44.206Z,49.23
2019-05-01T11:02:14.365Z,50.00
2019-05-01T11:04:42.811Z,48.37
2019-05-01T11:07:11.250Z,47.20
2019-05-01T11:09:39.705Z,49.57
2019-05-01T11:12:08.139Z,52.70
2019-05-01T11:14:36.657Z,49.13
2019-05-01T11:17:05.112Z,50.93
2019-05-01T11:19:33.607Z,51.63
2019-05-01T11:22:02.077Z,50.43
2019-05-01T11:24:30.531Z,53.30
2019-05-01T11:26:59.048Z,51.23
2019-05-01T11:29:30.554Z,52.67
2019-05-01T11:32:19.003Z,51.50
2019-05-01T11:34:57.660Z,54.57
2019-05-01T11:37:30.546Z,59.07
2019-05-01T11:40:06.520Z,53.07
2019-05-01T11:42:35.068Z,52.17
2019-05-01T11:45:05.335Z,50.67
2019-05-01T11:47:33.817Z,53.33
2019-05-01T11:50:02.277Z,55.37
2019-05-01T11:52:30.750Z,52.87
2019-05-01T11:54:59.365Z,53.03
2019-05-01T11:57:27.906Z,51.67
2019-05-01T11:59:56.486Z,50.87
2019-05-01T12:02:25.043Z,51.87
2019-05-01T12:04:53.520Z,53.60
2019-05-01T12:07:22.111Z,52.60
2019-05-01T12:09:50.624Z,52.50
2019-05-01T12:12:21.353Z,52.97
2019-05-01T12:14:49.783Z,51.10
2019-05-01T12:17:20.043Z,51.50
2019-05-01T12:19:48.641Z,52.50
2019-05-01T12:22:17.454Z,49.97
2019-05-01T12:24:45.922Z,50.93
2019-05-01T12:27:14.687Z,53.87
2019-05-01T12:29:43.199Z,50.20
2019-05-01T12:32:11.695Z,53.70
2019-05-01T12:34:40.211Z,49.03
2019-05-01T12:37:16.269Z,54.67
2019-05-01T12:39:45.449Z,51.33
2019-05-01T12:42:15.665Z,53.47
2019-05-01T12:44:44.283Z,52.30
2019-05-01T12:47:16.841Z,51.37
2019-05-01T12:49:47.078Z,51.67
2019-05-01T12:52:19.615Z,50.97
2019-05-01T12:55:02.073Z,50.40
2019-05-01T12:57:30.593Z,53.07
2019-05-01T13:00:08.411Z,52.50
2019-05-01T13:02:29.326Z,54.50
2019-05-01T13:04:57.826Z,53.53
2019-05-01T13:07:26.535Z,54.20
2019-05-01T13:09:55.001Z,52.20
2019-05-01T13:12:23.469Z,52.27
2019-05-01T13:14:51.904Z,52.10
2019-05-01T13:17:20.494Z,51.20
2019-05-01T13:19:49.084Z,52.10
2019-05-01T13:22:17.624Z,52.47
2019-05-01T13:24:52.146Z,51.83
2019-05-01T13:27:27.855Z,54.10
2019-05-01T13:29:58.172Z,51.53
2019-05-01T13:32:43.481Z,51.90
2019-05-01T13:35:12.526Z,53.73
2019-05-01T13:37:41.041Z,53.13
2019-05-01T13:40:10.453Z,54.40
2019-05-01T13:42:39.183Z,53.47
2019-05-01T13:45:08.782Z,51.80
2019-05-01T13:47:37.350Z,52.00
2019-05-01T13:50:07.071Z,55.00
2019-05-01T13:52:35.705Z,54.20
2019-05-01T13:55:06.119Z,51.87
2019-05-01T13:57:34.657Z,50.73
2019-05-01T14:00:05.197Z,55.53
2019-05-01T14:02:33.867Z,51.40
2019-05-01T14:05:02.333Z,51.97
2019-05-01T14:07:31.036Z,54.43
2019-05-01T14:09:59.828Z,52.30
2019-05-01T14:12:28.284Z,51.93
2019-05-01T14:14:56.840Z,53.10
2019-05-01T14:17:25.390Z,52.67
2019-05-01T14:19:58.260Z,49.77
2019-05-01T14:22:43.682Z,52.67
2019-05-01T14:25:14.265Z,53.20
2019-05-01T14:27:43.073Z,51.77
2019-05-01T14:30:12.238Z,51.30
2019-05-01T14:32:40.800Z,51.90
2019-05-01T14:35:10.322Z,51.97
2019-05-01T14:37:41.023Z,48.93
2019-05-01T14:40:09.997Z,54.80
2019-05-01T14:42:38.592Z,54.10
2019-05-01T14:45:09.242Z,52.63
2019-05-01T14:47:37.800Z,52.40
2019-05-01T14:50:07.026Z,53.80
2019-05-01T14:52:35.714Z,56.03
2019-05-01T14:55:07.361Z,53.47
2019-05-01T14:57:35.822Z,51.63
2019-05-01T15:00:06.178Z,56.30
2019-05-01T15:02:34.721Z,54.57
2019-05-01T15:05:04.015Z,53.47
2019-05-01T15:07:42.788Z,54.30
2019-05-01T15:10:02.789Z,52.33
2019-05-01T15:12:31.368Z,52.87
2019-05-01T15:15:10.565Z,50.20
2019-05-01T15:17:40.745Z,50.50
2019-05-01T15:20:09.345Z,50.80
2019-05-01T15:22:37.883Z,49.50
2019-05-01T15:25:06.976Z,49.77
2019-05-01T15:27:35.801Z,46.00
2019-05-01T15:30:06.510Z,47.97
2019-05-01T15:32:35.162Z,47.67
2019-05-01T15:35:04.610Z,48.70
2019-05-01T15:37:35.322Z,51.30
2019-05-01T15:40:09.141Z,46.70
2019-05-01T15:42:39.317Z,44.07
2019-05-01T15:45:08.267Z,46.83
2019-05-01T15:47:36.901Z,46.63
2019-05-01T15:50:07.693Z,44.73
2019-05-01T15:52:36.289Z,44.37
2019-05-01T15:55:07.421Z,45.00
2019-05-01T15:57:35.868Z,41.30
2019-05-01T16:00:10.423Z,44.27
2019-05-01T16:02:38.883Z,39.83
2019-05-01T16:05:08.077Z,40.40
2019-05-01T16:07:36.592Z,41.50
2019-05-01T16:10:10.394Z,40.27
2019-05-01T16:12:46.250Z,39.87
2019-05-01T16:15:20.067Z,39.47
2019-05-01T16:17:48.559Z,38.83
2019-05-01T16:20:20.327Z,37.30
2019-05-01T16:22:49.202Z,36.67
2019-05-01T16:25:17.903Z,39.07
2019-05-01T16:27:46.943Z,38.80
2019-05-01T16:30:17.662Z,37.97
2019-05-01T16:32:46.670Z,38.10
2019-05-01T16:35:15.288Z,38.40
2019-05-01T16:37:46.727Z,37.23
2019-05-01T16:40:33.312Z,37.70
2019-05-01T16:43:02.182Z,37.80
2019-05-01T16:45:32.358Z,39.30
2019-05-01T16:48:04.098Z,39.07
2019-05-01T16:50:33.031Z,38.70
2019-05-01T16:53:01.633Z,40.20
2019-05-01T16:55:30.308Z,39.27
2019-05-01T16:57:59.203Z,39.03
2019-05-01T17:01:01.788Z,42.83
2019-05-01T17:03:32.045Z,39.90
2019-05-01T17:06:07.909Z,37.63
2019-05-01T17:08:50.439Z,39.30
2019-05-01T17:11:38.893Z,38.50
2019-05-01T17:13:55.529Z,36.83
2019-05-01T17:16:36.812Z,37.87
2019-05-01T17:19:13.908Z,36.80
2019-05-01T17:21:42.635Z,36.40
2019-05-01T17:24:11.528Z,40.00
2019-05-01T17:26:40.419Z,38.90
2019-05-01T17:29:10.700Z,40.67
2019-05-01T17:31:42.556Z,40.87
2019-05-01T17:34:11.203Z,39.87
2019-05-01T17:36:40.002Z,39.47
2019-05-01T17:39:12.088Z,39.67
2019-05-01T17:41:43.847Z,38.40
2019-05-01T17:44:15.446Z,39.03
2019-05-01T17:49:18.919Z,41.20
2019-05-01T17:51:47.997Z,40.37
2019-05-01T17:54:19.597Z,41.00
2019-05-01T17:56:48.522Z,38.47
2019-05-01T18:02:24.127Z,39.93
2019-05-01T18:05:00.385Z,39.87
2019-05-01T18:07:33.284Z,41.67
2019-05-01T18:10:00.463Z,40.43
2019-05-01T18:19:10.736Z,39.60
2019-05-01T18:21:40.850Z,38.83
2019-05-01T18:24:27.302Z,38.97
2019-05-01T18:26:57.381Z,39.13
2019-05-01T18:29:27.509Z,40.83
2019-05-01T18:31:56.167Z,39.57
2019-05-01T18:34:24.627Z,42.00
2019-05-01T18:36:59.647Z,39.87
2019-05-01T18:39:35.379Z,39.53
2019-05-01T18:42:05.471Z,41.77
2019-05-01T18:44:34.011Z,40.90
2019-05-01T18:47:02.791Z,40.97
2019-05-01T18:49:31.300Z,40.73
2019-05-01T18:51:59.859Z,40.67
2019-05-01T18:54:30.387Z,39.37
2019-05-01T18:56:58.551Z,39.40
2019-05-01T18:59:27.007Z,40.90
2019-05-01T19:01:55.619Z,41.63
2019-05-01T19:04:24.746Z,41.20
2019-05-01T19:06:53.461Z,43.57
2019-05-01T19:09:29.788Z,40.30
2019-05-01T19:11:52.384Z,41.00
2019-05-01T19:14:23.620Z,42.20
2019-05-01T19:16:51.893Z,40.87
2019-05-01T19:19:20.711Z,41.93
2019-05-01T19:21:49.342Z,41.63
2019-05-01T19:24:18.084Z,42.30
2019-05-01T19:26:46.876Z,41.93
2019-05-01T19:29:17.511Z,42.37
2019-05-01T19:31:46.145Z,43.37
2019-05-01T19:34:14.596Z,42.73
2019-05-01T19:36:45.143Z,43.40
2019-05-01T19:39:13.302Z,40.70
2019-05-01T19:41:43.648Z,44.33
2019-05-01T19:44:13.863Z,53.23
2019-05-01T19:46:42.178Z,62.67
2019-05-01T19:49:10.830Z,51.80
2019-05-01T19:51:39.458Z,44.83
2019-05-01T19:54:07.973Z,42.20
2019-05-01T19:56:36.435Z,41.63
2019-05-01T19:59:04.989Z,41.43
2019-05-01T20:01:33.485Z,41.30
2019-05-01T20:04:21.424Z,43.70
2019-05-01T20:06:49.887Z,42.47
2019-05-01T20:09:18.408Z,44.70
2019-05-01T20:11:46.974Z,57.07
2019-05-01T20:14:15.473Z,67.40
2019-05-01T20:16:43.919Z,51.67
2019-05-01T20:19:12.444Z,44.97
2019-05-01T20:21:41.854Z,42.47
2019-05-01T20:24:10.678Z,44.87
2019-05-01T20:26:39.179Z,42.40
2019-05-01T20:29:07.979Z,41.93
2019-05-01T20:31:36.722Z,42.30
2019-05-01T20:34:05.349Z,43.00
2019-05-01T20:36:33.988Z,40.23
2019-05-01T20:39:03.112Z,40.97
2019-05-01T20:41:31.562Z,43.23
2019-05-01T20:44:00.004Z,41.40
2019-05-01T20:46:28.492Z,44.10
2019-05-01T20:49:00.939Z,41.73
2019-05-01T20:51:27.429Z,44.03
2019-05-01T20:53:55.879Z,41.30
2019-05-01T20:56:29.285Z,41.80
2019-05-01T20:59:02.834Z,42.30
2019-05-01T21:01:29.383Z,45.40
2019-05-01T21:04:08.771Z,44.40
2019-05-01T21:06:43.206Z,44.70
2019-05-01T21:09:13.868Z,46.27
2019-05-01T21:11:47.485Z,42.73
2019-05-01T21:14:21.731Z,43.20
2019-05-01T21:16:44.999Z,44.00
2019-05-01T21:19:13.770Z,44.47
2019-05-01T21:21:43.491Z,42.77
2019-05-01T21:24:14.019Z,41.50
2019-05-01T21:26:43.396Z,43.90
2019-05-01T21:29:13.845Z,44.00
2019-05-01T21:31:43.908Z,45.23
2019-05-01T21:34:33.356Z,44.37
2019-05-01T21:37:02.021Z,44.57
2019-05-01T21:39:30.530Z,46.30
2019-05-01T21:41:58.982Z,44.80
2019-05-01T21:44:27.431Z,46.57
2019-05-01T21:46:55.879Z,46.10
2019-05-01T21:49:24.318Z,53.23
2019-05-01T21:51:53.083Z,54.10
2019-05-01T21:54:22.032Z,47.13
2019-05-01T21:56:50.790Z,45.27
2019-05-01T21:59:19.275Z,46.00
2019-05-01T22:01:47.830Z,45.90
2019-05-01T22:04:16.315Z,44.70
2019-05-01T22:06:46.849Z,49.23
2019-05-01T22:09:16.714Z,48.27
2019-05-01T22:11:45.769Z,48.07
2019-05-01T22:14:15.861Z,46.97
2019-05-01T22:16:44.397Z,49.33
2019-05-01T22:19:32.200Z,48.83
2019-05-01T22:22:05.076Z,47.67
2019-05-01T22:24:37.878Z,46.70
2019-05-01T22:27:07.976Z,47.73
2019-05-01T22:29:38.162Z,47.80
2019-05-01T22:32:08.255Z,48.63
2019-05-01T22:34:47.024Z,48.63
2019-05-01T22:37:18.371Z,47.67
2019-05-01T22:40:01.633Z,49.13
2019-05-01T22:42:30.107Z,46.73
2019-05-01T22:45:00.099Z,46.17
2019-05-01T22:47:28.680Z,45.87
2019-05-01T22:49:57.192Z,46.10
2019-05-01T22:52:25.665Z,47.23
2019-05-01T22:54:54.118Z,47.90
2019-05-01T22:57:22.570Z,50.43
2019-05-01T22:59:51.016Z,48.47
2019-05-01T23:02:24.136Z,47.63
2019-05-01T23:04:54.078Z,48.67
2019-05-01T23:07:22.505Z,48.23
2019-05-01T23:09:50.951Z,48.70
2019-05-01T23:12:19.600Z,49.27
2019-05-01T23:14:48.192Z,47.60
2019-05-01T23:17:18.288Z,47.47
2019-05-01T23:19:46.732Z,47.53
2019-05-01T23:22:15.194Z,46.80
2019-05-01T23:24:43.696Z,48.03
2019-05-01T23:27:12.165Z,48.37
2019-05-01T23:29:40.612Z,46.97
2019-05-01T23:32:09.085Z,49.03
2019-05-01T23:34:37.557Z,47.70
2019-05-01T23:37:06.145Z,46.27
2019-05-01T23:39:40.102Z,47.37
2019-05-01T23:42:04.839Z,47.40
2019-05-01T23:44:33.276Z,47.40
2019-05-01T23:47:01.720Z,48.37
2019-05-01T23:49:55.292Z,48.80
2019-05-01T23:52:23.876Z,47.40
2019-05-01T23:54:52.339Z,45.70
2019-05-01T23:57:20.767Z,47.50
2019-05-01T23:59:49.227Z,48.70
